Time;durP1;ratioP1;P1;durP2;ratioP2;P2;SDS_P1;SDS_P2;PMS_P1;PMS_P2;Temp;Humidity;BMP_temperature;BMP_pressure;BME280_temperature;BME280_humidity;BME280_pressure;Samples;Min_cycle;Max_cycle;Signal;HPM_P1;HPM_P2
2021/12/11 00:01:38;;;;;;;30.33;12.17;;;;;;;;;;5052069;28;20377;-84
2021/12/11 00:04:06;;;;;;;25.47;11.97;;;;;;;;;;5051983;28;20021;-84
2021/12/11 00:06:52;;;;;;;25.90;11.57;;;;;;;;;;5052027;28;20028;-84
2021/12/11 00:09:20;;;;;;;22.63;11.50;;;;;;;;;;5051951;28;20063;-84
2021/12/11 00:11:48;;;;;;;22.20;10.63;;;;;;;;;;5051984;28;20028;-84
2021/12/11 00:14:14;;;;;;;25.70;12.17;;;;;;;;;;5051615;28;20047;-84
2021/12/11 00:16:40;;;;;;;27.47;12.53;;;;;;;;;;5051666;28;20021;-84
2021/12/11 00:19:19;;;;;;;29.30;12.80;;;;;;;;;;5051993;28;20082;-84
2021/12/11 00:21:44;;;;;;;26.60;12.20;;;;;;;;;;5051962;28;20495;-84
2021/12/11 00:24:13;;;;;;;28.47;13.13;;;;;;;;;;5051452;28;20032;-84
2021/12/11 00:26:50;;;;;;;25.03;11.73;;;;;;;;;;5051722;28;20451;-84
2021/12/11 00:29:19;;;;;;;30.33;13.87;;;;;;;;;;5051851;28;20029;-83
2021/12/11 00:31:48;;;;;;;28.43;13.77;;;;;;;;;;5051403;28;20079;-84
2021/12/11 00:34:14;;;;;;;29.63;13.27;;;;;;;;;;5051648;28;20100;-83
2021/12/11 00:36:40;;;;;;;31.70;13.43;;;;;;;;;;5051570;28;20099;-83
2021/12/11 00:39:12;;;;;;;28.13;13.20;;;;;;;;;;5051766;28;20061;-84
2021/12/11 00:41:38;;;;;;;29.10;12.77;;;;;;;;;;5051659;28;20021;-84
2021/12/11 00:44:04;;;;;;;28.70;13.70;;;;;;;;;;5052873;28;20100;-84
2021/12/11 00:46:30;;;;;;;29.07;13.13;;;;;;;;;;5051679;28;20504;-83
2021/12/11 00:49:05;;;;;;;27.47;12.27;;;;;;;;;;5051456;28;20020;-83
2021/12/11 00:51:30;;;;;;;27.83;12.87;;;;;;;;;;5051624;28;20522;-84
2021/12/11 00:53:57;;;;;;;27.47;12.70;;;;;;;;;;5052789;28;20021;-84
2021/12/11 00:56:24;;;;;;;34.37;14.43;;;;;;;;;;5051485;28;20013;-84
2021/12/11 00:58:51;;;;;;;29.53;13.50;;;;;;;;;;5051395;28;20021;-84
2021/12/11 01:01:21;;;;;;;32.53;14.43;;;;;;;;;;5051583;28;20468;-84
2021/12/11 01:03:55;;;;;;;29.33;14.53;;;;;;;;;;5051545;28;20025;-84
2021/12/11 01:06:44;;;;;;;29.67;13.43;;;;;;;;;;5051419;28;20027;-83
2021/12/11 01:09:12;;;;;;;30.70;14.63;;;;;;;;;;5051492;28;20025;-83
2021/12/11 01:11:50;;;;;;;35.17;15.83;;;;;;;;;;5052365;28;20495;-84
2021/12/11 01:14:31;;;;;;;36.37;15.80;;;;;;;;;;5051514;28;20017;-84
2021/12/11 01:17:01;;;;;;;32.23;14.67;;;;;;;;;;5052452;28;20041;-84
2021/12/11 01:19:28;;;;;;;36.87;16.57;;;;;;;;;;5029961;28;20017;-83
2021/12/11 01:21:58;;;;;;;40.57;16.10;;;;;;;;;;5030364;28;20021;-84
2021/12/11 01:24:31;;;;;;;36.20;16.13;;;;;;;;;;5030434;28;20159;-84
2021/12/11 01:26:58;;;;;;;37.13;16.73;;;;;;;;;;5030043;28;20021;-83
2021/12/11 01:29:25;;;;;;;44.57;18.23;;;;;;;;;;5033493;28;20476;-84
2021/12/11 01:31:51;;;;;;;43.50;17.90;;;;;;;;;;5033469;28;20017;-84
2021/12/11 01:34:16;;;;;;;38.57;17.23;;;;;;;;;;5033610;28;20018;-84
2021/12/11 01:36:41;;;;;;;41.97;17.57;;;;;;;;;;5034648;28;20067;-84
2021/12/11 01:39:09;;;;;;;38.93;16.97;;;;;;;;;;5033655;28;20433;-84
2021/12/11 01:41:35;;;;;;;40.50;16.77;;;;;;;;;;5033594;28;20022;-84
2021/12/11 01:44:04;;;;;;;37.87;17.07;;;;;;;;;;5065402;28;20020;-84
2021/12/11 01:46:29;;;;;;;37.13;16.27;;;;;;;;;;5074449;28;20437;-84
2021/12/11 01:49:00;;;;;;;36.40;16.40;;;;;;;;;;5074479;28;20063;-84
2021/12/11 01:51:30;;;;;;;42.70;17.13;;;;;;;;;;5074464;28;20020;-84
2021/12/11 01:54:17;;;;;;;37.23;15.97;;;;;;;;;;5074512;28;20104;-84
2021/12/11 01:56:43;;;;;;;40.83;16.37;;;;;;;;;;5074229;28;20024;-84
2021/12/11 01:59:15;;;;;;;41.67;16.53;;;;;;;;;;5074377;28;20023;-84
2021/12/11 02:01:40;;;;;;;35.17;16.02;;;;;;;;;;5074107;28;20017;-84
2021/12/11 02:04:07;;;;;;;32.57;14.83;;;;;;;;;;5057335;28;20025;-84
2021/12/11 02:06:34;;;;;;;32.43;15.67;;;;;;;;;;5054225;28;20488;-84
2021/12/11 02:09:06;;;;;;;30.33;14.37;;;;;;;;;;5053905;28;20028;-84
2021/12/11 02:11:32;;;;;;;33.67;15.53;;;;;;;;;;5054164;28;20025;-84
2021/12/11 02:14:00;;;;;;;30.57;14.67;;;;;;;;;;5054086;28;20600;-84
2021/12/11 02:16:27;;;;;;;28.73;14.63;;;;;;;;;;5053451;28;20025;-84
2021/12/11 02:18:57;;;;;;;30.93;14.40;;;;;;;;;;5052918;28;20013;-84
2021/12/11 02:21:26;;;;;;;30.00;12.93;;;;;;;;;;5053880;28;20032;-84
2021/12/11 02:23:58;;;;;;;30.47;14.20;;;;;;;;;;5053804;28;20021;-84
2021/12/11 02:26:24;;;;;;;30.77;15.02;;;;;;;;;;5053595;28;20119;-84
2021/12/11 02:28:52;;;;;;;26.50;13.57;;;;;;;;;;5053836;28;20464;-84
2021/12/11 02:31:31;;;;;;;30.63;14.17;;;;;;;;;;5055081;28;20060;-84
2021/12/11 02:34:07;;;;;;;29.47;13.53;;;;;;;;;;5053792;28;20025;-84
2021/12/11 02:36:34;;;;;;;28.47;13.07;;;;;;;;;;5053694;28;20116;-84
2021/12/11 02:39:09;;;;;;;29.43;12.97;;;;;;;;;;5053885;28;20531;-84
2021/12/11 02:41:53;;;;;;;30.10;13.80;;;;;;;;;;5053491;28;20052;-84
2021/12/11 02:44:39;;;;;;;26.73;13.17;;;;;;;;;;5053404;28;20021;-84
2021/12/11 02:47:11;;;;;;;25.13;12.23;;;;;;;;;;5045874;28;20127;-84
2021/12/11 02:49:45;;;;;;;26.92;12.77;;;;;;;;;;5053238;28;20031;-84
2021/12/11 02:52:28;;;;;;;25.50;13.20;;;;;;;;;;5054617;28;20052;-84
2021/12/11 02:55:04;;;;;;;27.40;12.37;;;;;;;;;;5053277;28;20017;-84
2021/12/11 02:57:31;;;;;;;31.60;13.07;;;;;;;;;;5053210;28;20021;-84
2021/12/11 03:00:05;;;;;;;23.63;12.50;;;;;;;;;;5054607;28;20025;-84
2021/12/11 03:02:31;;;;;;;24.23;11.80;;;;;;;;;;5053178;28;20025;-84
2021/12/11 03:05:07;;;;;;;27.60;12.90;;;;;;;;;;5052968;28;20032;-84
2021/12/11 03:07:37;;;;;;;26.93;12.57;;;;;;;;;;5052978;28;20088;-84
2021/12/11 03:10:08;;;;;;;24.63;11.80;;;;;;;;;;5053053;28;20380;-84
2021/12/11 03:12:33;;;;;;;31.77;13.73;;;;;;;;;;5052890;28;20492;-84
2021/12/11 03:14:59;;;;;;;28.27;13.47;;;;;;;;;;5052725;28;20009;-84
2021/12/11 03:17:27;;;;;;;25.87;12.30;;;;;;;;;;5051921;28;20024;-84
2021/12/11 03:19:52;;;;;;;27.33;12.77;;;;;;;;;;5051583;28;20026;-84
2021/12/11 03:22:20;;;;;;;30.03;13.00;;;;;;;;;;5051238;28;20013;-84
2021/12/11 03:24:45;;;;;;;28.30;13.53;;;;;;;;;;5051546;28;20484;-84
2021/12/11 03:27:11;;;;;;;25.90;13.07;;;;;;;;;;5051654;28;20081;-84
2021/12/11 03:29:36;;;;;;;25.40;13.53;;;;;;;;;;5051390;28;20021;-84
2021/12/11 03:32:03;;;;;;;28.13;12.67;;;;;;;;;;5051317;28;20499;-84
2021/12/11 03:34:29;;;;;;;26.53;13.33;;;;;;;;;;5052363;28;20027;-84
2021/12/11 03:36:55;;;;;;;25.30;12.20;;;;;;;;;;5051029;28;20021;-84
2021/12/11 03:39:23;;;;;;;25.73;12.67;;;;;;;;;;5051256;28;20483;-84
2021/12/11 03:41:49;;;;;;;25.80;12.77;;;;;;;;;;5055232;28;20024;-84
2021/12/11 03:44:15;;;;;;;27.70;14.10;;;;;;;;;;5051734;28;20025;-83
2021/12/11 03:46:41;;;;;;;27.47;14.17;;;;;;;;;;5085681;28;20031;-84
2021/12/11 03:49:08;;;;;;;27.40;13.03;;;;;;;;;;5086025;28;20025;-84
2021/12/11 03:51:37;;;;;;;27.30;13.40;;;;;;;;;;5085395;28;20024;-83
2021/12/11 03:54:04;;;;;;;26.00;12.37;;;;;;;;;;5085440;28;20040;-84
2021/12/11 03:56:29;;;;;;;21.07;11.67;;;;;;;;;;5052082;28;20013;-84
2021/12/11 03:58:55;;;;;;;25.63;11.80;;;;;;;;;;5052154;28;20013;-85
2021/12/11 04:01:26;;;;;;;25.83;12.60;;;;;;;;;;5052074;28;20380;-84
2021/12/11 04:03:54;;;;;;;27.25;13.43;;;;;;;;;;5068648;28;20480;-84
2021/12/11 04:06:20;;;;;;;27.07;13.57;;;;;;;;;;5053401;28;20108;-84
2021/12/11 04:08:46;;;;;;;22.73;11.67;;;;;;;;;;5053094;28;20465;-84
2021/12/11 04:11:14;;;;;;;20.73;11.60;;;;;;;;;;5051882;28;20029;-84
2021/12/11 04:13:39;;;;;;;23.37;11.77;;;;;;;;;;5051927;28;20017;-84
2021/12/11 04:16:06;;;;;;;22.00;11.47;;;;;;;;;;5051877;28;20028;-84
2021/12/11 04:18:31;;;;;;;22.73;11.43;;;;;;;;;;5051759;28;20028;-84
2021/12/11 04:20:57;;;;;;;23.93;12.30;;;;;;;;;;5051634;28;20025;-84
2021/12/11 04:23:22;;;;;;;28.57;14.20;;;;;;;;;;5051754;28;20052;-84
2021/12/11 04:25:50;;;;;;;26.63;14.00;;;;;;;;;;5051729;28;20036;-84
2021/12/11 04:28:17;;;;;;;29.20;14.20;;;;;;;;;;5050835;28;20036;-84
2021/12/11 04:30:44;;;;;;;27.70;13.50;;;;;;;;;;5050466;28;20031;-84
2021/12/11 04:33:09;;;;;;;24.77;11.80;;;;;;;;;;5050848;28;20017;-84
2021/12/11 04:35:34;;;;;;;24.03;12.17;;;;;;;;;;5051668;28;20028;-84
2021/12/11 04:38:02;;;;;;;24.40;11.73;;;;;;;;;;5050614;28;20017;-84
2021/12/11 04:40:31;;;;;;;23.67;12.07;;;;;;;;;;5050592;28;20029;-84
2021/12/11 04:43:05;;;;;;;23.87;11.13;;;;;;;;;;5050245;28;20115;-84
2021/12/11 04:45:46;;;;;;;23.80;11.70;;;;;;;;;;5050432;28;20024;-84
2021/12/11 04:48:22;;;;;;;24.33;12.07;;;;;;;;;;5050226;28;20025;-84
2021/12/11 04:53:53;;;;;;;26.52;12.30;;;;;;;;;;5059914;28;20020;-84
2021/12/11 05:04:49;;;;;;;27.63;13.03;;;;;;;;;;5056991;28;20017;-83
2021/12/11 05:10:10;;;;;;;29.47;14.07;;;;;;;;;;5056721;28;20028;-84
2021/12/11 05:12:35;;;;;;;27.23;13.27;;;;;;;;;;5055108;28;20025;-84
2021/12/11 05:15:07;;;;;;;25.70;13.93;;;;;;;;;;5054896;28;20032;-84
2021/12/11 05:17:32;;;;;;;30.30;14.07;;;;;;;;;;5056397;28;20021;-84
2021/12/11 05:19:57;;;;;;;27.80;14.00;;;;;;;;;;5055116;28;20250;-84
2021/12/11 05:22:23;;;;;;;31.37;13.87;;;;;;;;;;5055200;28;20108;-85
2021/12/11 05:24:50;;;;;;;32.43;13.73;;;;;;;;;;5056190;28;20542;-85
2021/12/11 05:27:15;;;;;;;31.13;16.33;;;;;;;;;;5054845;28;20021;-85
2021/12/11 05:29:40;;;;;;;36.03;15.90;;;;;;;;;;5054760;28;20025;-84
2021/12/11 05:32:07;;;;;;;33.50;15.43;;;;;;;;;;5054887;28;20063;-84
2021/12/11 05:34:33;;;;;;;31.43;15.37;;;;;;;;;;5054786;28;20021;-84
2021/12/11 05:36:58;;;;;;;28.83;14.07;;;;;;;;;;5088480;28;20531;-85
2021/12/11 05:39:23;;;;;;;37.83;15.00;;;;;;;;;;5055871;28;20024;-84
2021/12/11 05:41:49;;;;;;;29.53;13.37;;;;;;;;;;5088255;28;20025;-84
2021/12/11 05:44:16;;;;;;;30.30;14.07;;;;;;;;;;5054539;28;20449;-84
2021/12/11 05:46:41;;;;;;;30.17;14.43;;;;;;;;;;5054230;28;20040;-84
2021/12/11 05:49:07;;;;;;;32.07;15.33;;;;;;;;;;5054184;28;20028;-84
2021/12/11 05:51:38;;;;;;;30.97;14.03;;;;;;;;;;5054524;28;20465;-84
2021/12/11 05:54:04;;;;;;;30.50;14.53;;;;;;;;;;5071033;28;20013;-84
2021/12/11 05:56:34;;;;;;;31.00;13.53;;;;;;;;;;5053927;28;20048;-85
2021/12/11 05:59:00;;;;;;;29.97;14.67;;;;;;;;;;5054203;28;20075;-84
2021/12/11 06:01:29;;;;;;;29.87;14.53;;;;;;;;;;5054078;28;20021;-84
2021/12/11 06:03:55;;;;;;;31.37;14.33;;;;;;;;;;5054181;28;20041;-84
2021/12/11 06:06:20;;;;;;;35.00;15.67;;;;;;;;;;5054047;28;20053;-84
2021/12/11 06:08:46;;;;;;;34.90;15.03;;;;;;;;;;5054210;28;20032;-84
2021/12/11 06:11:14;;;;;;;28.70;13.87;;;;;;;;;;5054142;28;20025;-84
2021/12/11 06:13:39;;;;;;;29.87;15.13;;;;;;;;;;5053838;28;20476;-84
2021/12/11 06:16:04;;;;;;;31.93;13.33;;;;;;;;;;5053890;28;20025;-84
2021/12/11 06:18:30;;;;;;;26.27;12.47;;;;;;;;;;5054055;28;20017;-84
2021/12/11 06:20:55;;;;;;;25.77;11.97;;;;;;;;;;5060113;28;20361;-84
2021/12/11 06:23:22;;;;;;;23.30;10.80;;;;;;;;;;5073771;28;20025;-84
2021/12/11 06:25:47;;;;;;;27.40;11.90;;;;;;;;;;5073769;28;20139;-84
2021/12/11 06:28:12;;;;;;;23.40;11.30;;;;;;;;;;5073678;28;20048;-84
2021/12/11 06:30:38;;;;;;;22.00;10.73;;;;;;;;;;5073712;28;20353;-84
2021/12/11 06:33:04;;;;;;;27.33;11.23;;;;;;;;;;5073792;28;20024;-84
2021/12/11 06:35:34;;;;;;;28.77;12.17;;;;;;;;;;5073864;28;20078;-84
2021/12/11 06:37:59;;;;;;;29.40;11.70;;;;;;;;;;5107667;28;20108;-84
2021/12/11 06:40:25;;;;;;;22.13;9.70;;;;;;;;;;5073768;28;20059;-84
2021/12/11 06:42:51;;;;;;;21.93;8.40;;;;;;;;;;5064000;28;20071;-84
2021/12/11 06:45:16;;;;;;;19.80;8.60;;;;;;;;;;5053505;28;20025;-84
2021/12/11 06:47:42;;;;;;;20.37;8.37;;;;;;;;;;5053604;28;20029;-84
2021/12/11 06:50:08;;;;;;;17.73;6.87;;;;;;;;;;5053308;28;20063;-84
2021/12/11 06:52:34;;;;;;;21.20;7.40;;;;;;;;;;5053374;28;20116;-84
2021/12/11 06:54:59;;;;;;;21.23;6.67;;;;;;;;;;5053085;28;20041;-84
2021/12/11 06:57:24;;;;;;;27.20;7.93;;;;;;;;;;5053368;28;20021;-84
2021/12/11 06:59:50;;;;;;;17.87;6.23;;;;;;;;;;5053152;28;20078;-84
2021/12/11 07:02:16;;;;;;;18.67;6.00;;;;;;;;;;5053577;28;20144;-84
2021/12/11 07:04:41;;;;;;;20.47;5.83;;;;;;;;;;5054430;28;20084;-84
2021/12/11 07:07:07;;;;;;;15.77;5.03;;;;;;;;;;5086439;27;20028;-84
2021/12/11 07:09:32;;;;;;;20.70;5.43;;;;;;;;;;5086059;28;20032;-84
2021/12/11 07:11:58;;;;;;;22.03;5.37;;;;;;;;;;5053094;28;20401;-84
2021/12/11 07:14:24;;;;;;;17.93;6.30;;;;;;;;;;5051017;28;20020;-83
2021/12/11 07:16:50;;;;;;;24.10;5.37;;;;;;;;;;5052589;28;20055;-83
2021/12/11 07:19:16;;;;;;;15.40;5.37;;;;;;;;;;5084624;28;20021;-83
2021/12/11 07:21:42;;;;;;;16.30;4.83;;;;;;;;;;5052400;28;20128;-83
2021/12/11 07:24:09;;;;;;;18.27;5.07;;;;;;;;;;5069386;28;20075;-84
2021/12/11 07:26:35;;;;;;;19.50;3.87;;;;;;;;;;5052345;28;20032;-84
2021/12/11 07:29:03;;;;;;;19.93;4.37;;;;;;;;;;5053749;28;20020;-84
2021/12/11 07:31:29;;;;;;;18.10;3.93;;;;;;;;;;5052061;28;20120;-84
2021/12/11 07:33:55;;;;;;;17.10;4.23;;;;;;;;;;5051738;28;20436;-83
2021/12/11 07:36:21;;;;;;;18.33;4.20;;;;;;;;;;5052203;28;20013;-84
2021/12/11 07:38:47;;;;;;;23.03;3.80;;;;;;;;;;5052095;28;20036;-83
2021/12/11 07:41:13;;;;;;;12.17;3.60;;;;;;;;;;5052027;28;20021;-84
2021/12/11 07:43:40;;;;;;;13.90;3.67;;;;;;;;;;5052287;28;20108;-84
2021/12/11 07:46:06;;;;;;;11.27;2.67;;;;;;;;;;5051589;28;20539;-83
2021/12/11 07:48:31;;;;;;;18.63;3.00;;;;;;;;;;5051582;28;20021;-84
2021/12/11 07:50:57;;;;;;;18.73;3.83;;;;;;;;;;5051748;28;20021;-84
2021/12/11 07:53:22;;;;;;;20.47;3.30;;;;;;;;;;5052515;28;20491;-84
2021/12/11 07:55:48;;;;;;;14.40;2.50;;;;;;;;;;5051307;28;20016;-84
2021/12/11 07:58:14;;;;;;;16.90;2.73;;;;;;;;;;5050940;28;20024;-84
2021/12/11 08:00:40;;;;;;;18.03;2.80;;;;;;;;;;5052403;28;20021;-83
2021/12/11 08:03:06;;;;;;;12.37;2.10;;;;;;;;;;5051072;28;20083;-84
2021/12/11 08:05:32;;;;;;;14.37;2.67;;;;;;;;;;5050805;28;20057;-84
2021/12/11 08:08:03;;;;;;;18.23;2.57;;;;;;;;;;5075008;28;20052;-84
2021/12/11 08:10:32;;;;;;;9.57;2.20;;;;;;;;;;5043876;28;20473;-84
2021/12/11 08:12:58;;;;;;;16.40;2.30;;;;;;;;;;5070819;28;20033;-85
2021/12/11 08:15:23;;;;;;;18.50;2.30;;;;;;;;;;5082721;28;20357;-85
2021/12/11 08:17:54;;;;;;;12.70;2.67;;;;;;;;;;5051619;28;20421;-85
2021/12/11 08:20:20;;;;;;;22.87;3.13;;;;;;;;;;5043290;28;20021;-85
2021/12/11 08:22:45;;;;;;;13.10;2.53;;;;;;;;;;5051782;28;20024;-86
2021/12/11 08:25:11;;;;;;;13.47;2.90;;;;;;;;;;5051745;28;20115;-86
2021/12/11 08:27:37;;;;;;;13.43;3.33;;;;;;;;;;5051253;28;20078;-87
2021/12/11 08:30:03;;;;;;;16.20;3.37;;;;;;;;;;5052078;28;20109;-86
2021/12/11 08:32:28;;;;;;;13.23;3.40;;;;;;;;;;5055669;28;20013;-86
2021/12/11 08:34:54;;;;;;;23.43;3.77;;;;;;;;;;5071719;28;20769;-86
2021/12/11 08:37:20;;;;;;;20.63;3.43;;;;;;;;;;5071966;28;20020;-86
2021/12/11 08:39:46;;;;;;;16.50;3.83;;;;;;;;;;5067467;28;20020;-85
2021/12/11 08:42:14;;;;;;;21.93;4.47;;;;;;;;;;5055250;28;20017;-86
2021/12/11 08:44:48;;;;;;;25.30;4.37;;;;;;;;;;5084321;28;20029;-86
2021/12/11 08:47:14;;;;;;;15.73;3.90;;;;;;;;;;5045776;28;20071;-86
2021/12/11 08:49:40;;;;;;;21.77;3.87;;;;;;;;;;5055729;28;20013;-86
2021/12/11 08:52:24;;;;;;;22.23;3.97;;;;;;;;;;5055476;28;20096;-86
2021/12/11 08:54:50;;;;;;;15.40;4.00;;;;;;;;;;5055442;28;20025;-85
2021/12/11 08:57:20;;;;;;;25.23;5.27;;;;;;;;;;5067841;28;20020;-86
2021/12/11 08:59:48;;;;;;;28.30;5.83;;;;;;;;;;5057137;28;20021;-86
2021/12/11 09:02:16;;;;;;;21.10;4.90;;;;;;;;;;5055265;28;20063;-86
2021/12/11 09:04:44;;;;;;;21.03;4.80;;;;;;;;;;5056366;28;20043;-86
2021/12/11 09:07:13;;;;;;;12.93;3.80;;;;;;;;;;5074208;28;20421;-86
2021/12/11 09:09:49;;;;;;;14.13;3.97;;;;;;;;;;5058447;28;20407;-85
2021/12/11 09:12:17;;;;;;;15.60;3.83;;;;;;;;;;5054648;28;20020;-86
2021/12/11 09:14:51;;;;;;;14.70;4.23;;;;;;;;;;5054940;28;20018;-86
2021/12/11 09:17:20;;;;;;;18.40;4.10;;;;;;;;;;5055033;28;20020;-86
2021/12/11 09:19:51;;;;;;;15.27;4.50;;;;;;;;;;5054892;28;20032;-86
2021/12/11 09:22:20;;;;;;;13.80;3.73;;;;;;;;;;5054998;28;20116;-86
2021/12/11 09:25:06;;;;;;;12.07;3.20;;;;;;;;;;5054402;28;20484;-85
2021/12/11 09:27:51;;;;;;;15.33;3.53;;;;;;;;;;5054664;28;20477;-86
2021/12/11 09:30:29;;;;;;;17.87;4.07;;;;;;;;;;5054159;28;20503;-85
2021/12/11 09:32:57;;;;;;;16.90;4.50;;;;;;;;;;5088443;28;20392;-86
2021/12/11 09:35:27;;;;;;;19.43;4.10;;;;;;;;;;5088273;28;20013;-85
2021/12/11 09:37:54;;;;;;;14.33;4.20;;;;;;;;;;5056453;28;20009;-86
2021/12/11 09:40:31;;;;;;;15.30;3.80;;;;;;;;;;5078001;28;20013;-83
2021/12/11 09:42:57;;;;;;;11.47;3.37;;;;;;;;;;5034643;28;20032;-86
2021/12/11 09:45:24;;;;;;;14.64;3.62;;;;;;;;;;5073003;28;20013;-86
2021/12/11 09:47:53;;;;;;;17.27;4.00;;;;;;;;;;5054842;28;20021;-86
2021/12/11 09:50:23;;;;;;;25.63;4.40;;;;;;;;;;5053525;28;20479;-85
2021/12/11 09:52:49;;;;;;;20.80;4.07;;;;;;;;;;5068035;28;20029;-86
2021/12/11 09:55:23;;;;;;;18.93;3.73;;;;;;;;;;5042737;28;20354;-86
2021/12/11 09:57:51;;;;;;;14.67;4.00;;;;;;;;;;5052466;28;20703;-86
2021/12/11 10:00:19;;;;;;;15.50;3.83;;;;;;;;;;5082258;28;20027;-86
2021/12/11 10:02:45;;;;;;;14.77;4.00;;;;;;;;;;5056564;28;20055;-86
2021/12/11 10:05:28;;;;;;;19.33;3.73;;;;;;;;;;5054068;28;20024;-86
2021/12/11 10:08:12;;;;;;;20.63;4.47;;;;;;;;;;5053821;28;20039;-86
2021/12/11 10:10:38;;;;;;;17.43;3.83;;;;;;;;;;5054040;28;20082;-86
2021/12/11 10:13:03;;;;;;;19.50;3.90;;;;;;;;;;5054121;28;20468;-86
2021/12/11 10:15:34;;;;;;;19.70;4.03;;;;;;;;;;5054079;28;20049;-86
2021/12/11 10:18:08;;;;;;;16.37;4.00;;;;;;;;;;5053427;28;20100;-86
2021/12/11 10:20:38;;;;;;;14.27;3.80;;;;;;;;;;5053927;28;20074;-86
2021/12/11 10:23:05;;;;;;;16.63;3.90;;;;;;;;;;5055108;28;20024;-85
2021/12/11 10:25:31;;;;;;;18.37;4.10;;;;;;;;;;5053778;28;20495;-86
2021/12/11 10:27:58;;;;;;;16.37;3.93;;;;;;;;;;5053618;28;20496;-86
2021/12/11 10:30:24;;;;;;;15.90;3.40;;;;;;;;;;5052812;28;20032;-85
2021/12/11 10:32:51;;;;;;;20.93;4.53;;;;;;;;;;5053612;28;20024;-86
2021/12/11 10:35:21;;;;;;;15.80;4.47;;;;;;;;;;5053804;28;20538;-86
2021/12/11 10:37:47;;;;;;;15.37;4.60;;;;;;;;;;5055220;28;20368;-85
2021/12/11 10:40:18;;;;;;;15.07;4.43;;;;;;;;;;5053265;28;20025;-86
2021/12/11 10:42:45;;;;;;;17.50;4.30;;;;;;;;;;5053493;28;20025;-86
2021/12/11 10:45:12;;;;;;;19.13;4.37;;;;;;;;;;5053632;28;20037;-85
2021/12/11 10:47:41;;;;;;;22.73;4.83;;;;;;;;;;5053259;28;20017;-85
2021/12/11 10:50:12;;;;;;;19.13;5.10;;;;;;;;;;5053535;28;20107;-86
2021/12/11 10:52:38;;;;;;;14.83;4.17;;;;;;;;;;5053364;28;20013;-85
2021/12/11 10:55:06;;;;;;;17.00;4.37;;;;;;;;;;5052515;28;20024;-86
2021/12/11 10:57:32;;;;;;;21.40;4.67;;;;;;;;;;5053090;28;20021;-85
2021/12/11 10:59:58;;;;;;;28.57;4.87;;;;;;;;;;5053398;28;20025;-86
2021/12/11 11:02:28;;;;;;;14.97;4.23;;;;;;;;;;5053091;28;20017;-85
2021/12/11 11:04:59;;;;;;;17.97;4.13;;;;;;;;;;5053128;28;20021;-85
2021/12/11 11:07:25;;;;;;;20.13;4.20;;;;;;;;;;5053191;28;20017;-85
2021/12/11 11:09:50;;;;;;;15.87;4.07;;;;;;;;;;5052330;28;20013;-85
2021/12/11 11:12:17;;;;;;;18.10;4.03;;;;;;;;;;5053124;28;20171;-86
2021/12/11 11:14:42;;;;;;;21.10;5.03;;;;;;;;;;5054237;28;20036;-86
2021/12/11 11:17:10;;;;;;;18.47;4.03;;;;;;;;;;5052964;28;20013;-86
2021/12/11 11:19:38;;;;;;;21.33;4.03;;;;;;;;;;5052708;28;20100;-86
2021/12/11 11:22:06;;;;;;;20.53;4.60;;;;;;;;;;5052746;28;20094;-86
2021/12/11 11:24:34;;;;;;;12.77;3.73;;;;;;;;;;5052679;28;20431;-86
2021/12/11 11:26:59;;;;;;;15.00;4.30;;;;;;;;;;5052298;28;20571;-86
2021/12/11 11:29:26;;;;;;;24.63;4.23;;;;;;;;;;5052405;28;20107;-86
2021/12/11 11:31:53;;;;;;;21.23;4.63;;;;;;;;;;5052093;28;20025;-86
2021/12/11 11:34:19;;;;;;;18.23;4.17;;;;;;;;;;5052650;28;20017;-86
2021/12/11 11:36:46;;;;;;;21.20;4.33;;;;;;;;;;5052379;28;20017;-86
2021/12/11 11:39:14;;;;;;;23.17;4.80;;;;;;;;;;5052415;28;20066;-86
2021/12/11 11:41:42;;;;;;;16.23;4.67;;;;;;;;;;5052405;28;20029;-86
2021/12/11 11:44:08;;;;;;;15.00;3.57;;;;;;;;;;5052341;28;20074;-85
2021/12/11 11:46:34;;;;;;;14.53;3.37;;;;;;;;;;5052405;28;20021;-86
2021/12/11 11:49:00;;;;;;;16.47;3.70;;;;;;;;;;5052335;28;20112;-85
2021/12/11 11:51:31;;;;;;;18.50;3.77;;;;;;;;;;5052214;28;20024;-86
2021/12/11 11:53:57;;;;;;;11.20;3.33;;;;;;;;;;5051945;28;20067;-86
2021/12/11 11:56:23;;;;;;;18.13;3.53;;;;;;;;;;5051867;28;20029;-86
2021/12/11 11:58:49;;;;;;;21.60;4.27;;;;;;;;;;5051932;28;20013;-85
2021/12/11 12:01:15;;;;;;;11.70;3.63;;;;;;;;;;5051932;28;20107;-85
2021/12/11 12:03:40;;;;;;;35.23;4.77;;;;;;;;;;5051896;28;20060;-85
2021/12/11 12:06:10;;;;;;;23.90;4.83;;;;;;;;;;5052019;28;20029;-86
2021/12/11 12:08:37;;;;;;;17.83;4.13;;;;;;;;;;5052086;28;20109;-86
2021/12/11 12:11:03;;;;;;;18.47;4.93;;;;;;;;;;5051990;28;20471;-86
2021/12/11 12:13:28;;;;;;;18.93;4.97;;;;;;;;;;5051791;28;20049;-85
2021/12/11 12:16:01;;;;;;;22.83;4.20;;;;;;;;;;5051468;28;20051;-86
2021/12/11 12:18:27;;;;;;;;;;;;;;;;;;5052285;28;20520;-85
2021/12/11 12:20:53;;;;;;;17.37;4.67;;;;;;;;;;5051776;28;19912;-86
2021/12/11 12:23:19;;;;;;;24.00;3.93;;;;;;;;;;5051900;28;20020;-86
2021/12/11 12:25:44;;;;;;;19.97;5.30;;;;;;;;;;5051562;28;20029;-85
2021/12/11 12:28:10;;;;;;;14.87;4.20;;;;;;;;;;5051818;28;20025;-86
2021/12/11 12:30:38;;;;;;;21.57;4.37;;;;;;;;;;5051354;28;20468;-86
2021/12/11 12:33:04;;;;;;;16.07;4.43;;;;;;;;;;5051637;28;20025;-85
2021/12/11 12:35:29;;;;;;;25.50;4.93;;;;;;;;;;5052922;28;20032;-86
2021/12/11 12:37:55;;;;;;;13.33;3.87;;;;;;;;;;5051588;28;20017;-85
2021/12/11 12:40:28;;;;;;;22.40;5.87;;;;;;;;;;5051759;28;20091;-85
2021/12/11 12:42:57;;;;;;;20.30;4.23;;;;;;;;;;5052901;28;20725;-86
2021/12/11 12:45:34;;;;;;;12.13;4.30;;;;;;;;;;5051720;28;20123;-85
2021/12/11 12:48:04;;;;;;;20.00;5.00;;;;;;;;;;5051621;28;20036;-86
2021/12/11 12:50:33;;;;;;;13.63;4.70;;;;;;;;;;5051398;28;20055;-85
2021/12/11 12:52:59;;;;;;;20.07;4.17;;;;;;;;;;5051685;28;20029;-85
2021/12/11 12:55:47;;;;;;;26.33;5.80;;;;;;;;;;5051623;28;20028;-85
2021/12/11 12:58:18;;;;;;;16.60;4.03;;;;;;;;;;5048436;28;20029;-85
2021/12/11 13:00:50;;;;;;;19.73;4.93;;;;;;;;;;5053122;28;20055;-85
2021/12/11 13:03:17;;;;;;;18.52;4.22;;;;;;;;;;5051648;28;20040;-85
2021/12/11 13:05:45;;;;;;;17.67;4.03;;;;;;;;;;5051061;28;20028;-85
2021/12/11 13:08:15;;;;;;;19.83;4.73;;;;;;;;;;5051277;28;20028;-85
2021/12/11 13:10:45;;;;;;;19.30;4.40;;;;;;;;;;5051530;28;20507;-85
2021/12/11 13:13:11;;;;;;;18.33;4.17;;;;;;;;;;5051457;28;20017;-85
2021/12/11 13:15:39;;;;;;;26.47;4.33;;;;;;;;;;5051209;28;20029;-85
2021/12/11 13:18:07;;;;;;;16.60;5.07;;;;;;;;;;5050827;28;20025;-85
2021/12/11 13:20:35;;;;;;;12.50;4.63;;;;;;;;;;5051320;28;20017;-85
2021/12/11 13:23:01;;;;;;;27.33;6.17;;;;;;;;;;5051264;28;20032;-85
2021/12/11 13:25:28;;;;;;;25.30;6.17;;;;;;;;;;5055879;28;20032;-85
2021/12/11 13:27:56;;;;;;;15.83;6.00;;;;;;;;;;5055165;28;20025;-85
2021/12/11 13:30:28;;;;;;;16.53;5.80;;;;;;;;;;5054858;28;20384;-85
2021/12/11 13:32:54;;;;;;;18.70;5.68;;;;;;;;;;5054809;28;20017;-85
2021/12/11 13:35:23;;;;;;;21.47;5.83;;;;;;;;;;5054789;28;20021;-85
2021/12/11 13:37:49;;;;;;;17.57;7.20;;;;;;;;;;5054786;28;20478;-85
2021/12/11 13:40:15;;;;;;;19.83;7.90;;;;;;;;;;5054657;28;20056;-85
2021/12/11 13:42:41;;;;;;;24.43;7.20;;;;;;;;;;5054638;28;20021;-85
2021/12/11 13:45:11;;;;;;;22.47;7.03;;;;;;;;;;5054076;28;20068;-85
2021/12/11 13:47:36;;;;;;;18.17;6.77;;;;;;;;;;5054601;28;20111;-85
2021/12/11 13:50:05;;;;;;;16.20;7.07;;;;;;;;;;5054557;28;20067;-85
2021/12/11 13:52:30;;;;;;;21.73;6.80;;;;;;;;;;5055583;28;20049;-85
2021/12/11 13:54:55;;;;;;;20.00;7.07;;;;;;;;;;5055774;28;20060;-85
2021/12/11 13:57:25;;;;;;;23.83;7.57;;;;;;;;;;5054597;28;20081;-85
2021/12/11 13:59:54;;;;;;;25.07;7.10;;;;;;;;;;5054025;28;20409;-85
2021/12/11 14:02:20;;;;;;;12.67;6.40;;;;;;;;;;5054149;28;20067;-85
2021/12/11 14:04:45;;;;;;;22.03;6.13;;;;;;;;;;5054376;28;20029;-85
2021/12/11 14:07:18;;;;;;;19.60;6.63;;;;;;;;;;5054339;28;20024;-85
2021/12/11 14:09:43;;;;;;;;;;;;;;;;;;5051177;28;20028;-85
2021/12/11 14:12:09;;;;;;;24.63;7.10;;;;;;;;;;5060316;28;19912;-86
2021/12/11 14:14:34;;;;;;;18.33;6.83;;;;;;;;;;5085827;28;20017;-85
2021/12/11 14:17:00;;;;;;;20.70;6.10;;;;;;;;;;5062042;28;20021;-85
2021/12/11 14:19:25;;;;;;;23.43;6.33;;;;;;;;;;5086854;28;20029;-85
2021/12/11 14:21:50;;;;;;;19.70;6.90;;;;;;;;;;5086412;28;20056;-85
2021/12/11 14:24:16;;;;;;;20.57;6.00;;;;;;;;;;5055009;28;20032;-85
2021/12/11 14:26:42;;;;;;;23.83;6.67;;;;;;;;;;5055947;28;20052;-85
2021/12/11 14:29:08;;;;;;;16.80;5.57;;;;;;;;;;5077503;28;20469;-85
2021/12/11 14:31:34;;;;;;;16.80;5.33;;;;;;;;;;5057724;28;20074;-86
2021/12/11 14:34:01;;;;;;;22.63;5.60;;;;;;;;;;5052464;28;20056;-86
2021/12/11 14:36:28;;;;;;;19.30;5.27;;;;;;;;;;5053336;28;20120;-86
2021/12/11 14:39:02;;;;;;;13.63;4.70;;;;;;;;;;5053202;28;20021;-87
2021/12/11 14:41:31;;;;;;;12.33;4.33;;;;;;;;;;5054243;28;20036;-86
2021/12/11 14:43:56;;;;;;;19.63;4.47;;;;;;;;;;5059255;28;20422;-86
2021/12/11 14:46:22;;;;;;;19.83;4.57;;;;;;;;;;5053305;28;20025;-86